sensor_id;sensor_type;location;lat;lon;timestamp;pressure;altitude;pressure_sealevel;temperature;humidity
20955;BME280;10636;19.390;-99.256;2023-05-20T00:02:09;78022.88;;;25.48;33.23
20955;BME280;10636;19.390;-99.256;2023-05-20T00:04:38;78026.94;;;25.49;33.60
20955;BME280;10636;19.390;-99.256;2023-05-20T00:07:07;78035.00;;;25.49;33.84
20955;BME280;10636;19.390;-99.256;2023-05-20T00:09:38;78044.34;;;25.48;34.23
20955;BME280;10636;19.390;-99.256;2023-05-20T00:12:08;78046.66;;;25.38;34.59
20955;BME280;10636;19.390;-99.256;2023-05-20T00:14:36;78054.25;;;25.43;34.49
20955;BME280;10636;19.390;-99.256;2023-05-20T00:17:05;78051.66;;;25.27;35.05
20955;BME280;10636;19.390;-99.256;2023-05-20T00:19:38;78077.63;;;25.41;34.78
20955;BME280;10636;19.390;-99.256;2023-05-20T00:22:06;78085.63;;;25.39;35.02
20955;BME280;10636;19.390;-99.256;2023-05-20T00:24:35;78083.56;;;25.37;35.32
20955;BME280;10636;19.390;-99.256;2023-05-20T00:27:03;78088.94;;;25.37;35.52
20955;BME280;10636;19.390;-99.256;2023-05-20T00:29:34;78098.25;;;25.36;35.61
20955;BME280;10636;19.390;-99.256;2023-05-20T00:32:14;78104.19;;;25.33;35.42
20955;BME280;10636;19.390;-99.256;2023-05-20T00:34:43;78105.41;;;25.29;35.27
20955;BME280;10636;19.390;-99.256;2023-05-20T00:37:11;78112.00;;;25.26;35.21
20955;BME280;10636;19.390;-99.256;2023-05-20T00:39:43;78119.97;;;25.24;35.43
20955;BME280;10636;19.390;-99.256;2023-05-20T00:42:11;78136.06;;;25.24;35.89
20955;BME280;10636;19.390;-99.256;2023-05-20T00:44:50;78137.53;;;25.27;35.71
20955;BME280;10636;19.390;-99.256;2023-05-20T00:47:25;78144.28;;;25.28;36.29
20955;BME280;10636;19.390;-99.256;2023-05-20T00:49:55;78133.38;;;25.24;36.58
20955;BME280;10636;19.390;-99.256;2023-05-20T00:52:24;78150.97;;;25.27;36.73
20955;BME280;10636;19.390;-99.256;2023-05-20T00:54:55;78150.19;;;25.25;37.42
20955;BME280;10636;19.390;-99.256;2023-05-20T00:57:25;78152.88;;;25.25;37.96
20955;BME280;10636;19.390;-99.256;2023-05-20T00:59:55;78143.72;;;25.14;38.44
20955;BME280;10636;19.390;-99.256;2023-05-20T01:02:26;78162.22;;;25.24;38.60
20955;BME280;10636;19.390;-99.256;2023-05-20T01:04:59;78160.16;;;25.22;38.63
20955;BME280;10636;19.390;-99.256;2023-05-20T01:07:27;78130.69;;;24.91;39.11
20955;BME280;10636;19.390;-99.256;2023-05-20T01:09:58;78176.25;;;25.22;39.33
20955;BME280;10636;19.390;-99.256;2023-05-20T01:12:30;78200.31;;;25.20;40.18
20955;BME280;10636;19.390;-99.256;2023-05-20T01:15:08;78193.56;;;25.19;40.36
20955;BME280;10636;19.390;-99.256;2023-05-20T01:17:40;78194.25;;;25.20;40.48
20955;BME280;10636;19.390;-99.256;2023-05-20T01:20:14;78199.56;;;25.18;41.19
20955;BME280;10636;19.390;-99.256;2023-05-20T01:22:48;78206.22;;;25.17;41.37
20955;BME280;10636;19.390;-99.256;2023-05-20T01:25:28;78204.16;;;25.15;41.50
20955;BME280;10636;19.390;-99.256;2023-05-20T01:27:57;78221.47;;;25.12;40.98
20955;BME280;10636;19.390;-99.256;2023-05-20T01:30:29;78221.47;;;25.12;41.63
20955;BME280;10636;19.390;-99.256;2023-05-20T01:33:04;78229.44;;;25.10;41.54
20955;BME280;10636;19.390;-99.256;2023-05-20T01:35:35;78224.78;;;25.11;41.24
20955;BME280;10636;19.390;-99.256;2023-05-20T01:38:07;78229.44;;;25.10;41.19
20955;BME280;10636;19.390;-99.256;2023-05-20T01:40:35;78244.16;;;25.09;41.20
20955;BME280;10636;19.390;-99.256;2023-05-20T01:43:05;78251.44;;;25.07;41.02
20955;BME280;10636;19.390;-99.256;2023-05-20T01:45:34;78249.34;;;25.05;40.69
20955;BME280;10636;19.390;-99.256;2023-05-20T01:50:42;78249.16;;;25.01;40.87
20955;BME280;10636;19.390;-99.256;2023-05-20T01:53:12;78256.13;;;25.06;40.84
20955;BME280;10636;19.390;-99.256;2023-05-20T01:55:41;78266.84;;;25.06;40.59
20955;BME280;10636;19.390;-99.256;2023-05-20T01:58:09;78266.13;;;25.06;40.97
20955;BME280;10636;19.390;-99.256;2023-05-20T02:00:37;78270.81;;;25.05;41.13
20955;BME280;10636;19.390;-99.256;2023-05-20T02:03:06;78269.25;;;25.00;40.81
20955;BME280;10636;19.390;-99.256;2023-05-20T02:05:34;78235.84;;;24.71;40.41
20955;BME280;10636;19.390;-99.256;2023-05-20T02:08:03;78285.50;;;25.04;40.64
20955;BME280;10636;19.390;-99.256;2023-05-20T02:10:33;78285.44;;;25.02;40.75
20955;BME280;10636;19.390;-99.256;2023-05-20T02:13:02;78287.94;;;24.98;40.48
20955;BME280;10636;19.390;-99.256;2023-05-20T02:15:30;78305.69;;;25.05;41.14
20955;BME280;10636;19.390;-99.256;2023-05-20T02:17:58;78311.75;;;25.06;40.69
20955;BME280;10636;19.390;-99.256;2023-05-20T02:20:29;78317.84;;;25.06;40.78
20955;BME280;10636;19.390;-99.256;2023-05-20T02:22:58;78317.91;;;25.08;41.04
20955;BME280;10636;19.390;-99.256;2023-05-20T02:25:26;78323.97;;;25.09;40.99
20955;BME280;10636;19.390;-99.256;2023-05-20T02:27:56;78334.00;;;25.08;41.44
20955;BME280;10636;19.390;-99.256;2023-05-20T02:30:26;78333.31;;;25.08;40.78
20955;BME280;10636;19.390;-99.256;2023-05-20T02:32:54;78328.66;;;25.08;40.99
20955;BME280;10636;19.390;-99.256;2023-05-20T02:35:23;78338.78;;;25.10;40.94
20955;BME280;10636;19.390;-99.256;2023-05-20T02:37:51;78340.75;;;25.09;41.25
20955;BME280;10636;19.390;-99.256;2023-05-20T02:40:20;78331.03;;;25.02;41.08
20955;BME280;10636;19.390;-99.256;2023-05-20T02:42:48;78338.00;;;25.07;41.21
20955;BME280;10636;19.390;-99.256;2023-05-20T02:45:18;78322.91;;;25.00;41.30
20955;BME280;10636;19.390;-99.256;2023-05-20T02:47:47;78344.75;;;25.08;41.37
20955;BME280;10636;19.390;-99.256;2023-05-20T02:50:15;78346.13;;;25.09;41.05
20955;BME280;10636;19.390;-99.256;2023-05-20T02:52:44;78351.50;;;25.09;41.42
20955;BME280;10636;19.390;-99.256;2023-05-20T02:55:12;78346.06;;;25.07;41.59
20955;BME280;10636;19.390;-99.256;2023-05-20T02:57:41;78340.59;;;25.05;41.60
20955;BME280;10636;19.390;-99.256;2023-05-20T03:00:10;78339.59;;;24.98;41.20
20955;BME280;10636;19.390;-99.256;2023-05-20T03:02:44;78338.66;;;24.92;41.11
20955;BME280;10636;19.390;-99.256;2023-05-20T03:05:12;78364.16;;;25.07;41.18
20955;BME280;10636;19.390;-99.256;2023-05-20T03:07:41;78366.16;;;25.06;41.08
20955;BME280;10636;19.390;-99.256;2023-05-20T03:10:09;78362.06;;;25.05;41.22
20955;BME280;10636;19.390;-99.256;2023-05-20T03:12:38;78371.38;;;25.04;40.99
20955;BME280;10636;19.390;-99.256;2023-05-20T03:15:07;78379.56;;;25.06;41.08
20955;BME280;10636;19.390;-99.256;2023-05-20T03:17:36;78384.78;;;25.04;41.11
20955;BME280;10636;19.390;-99.256;2023-05-20T03:20:07;78386.19;;;25.05;41.29
20955;BME280;10636;19.390;-99.256;2023-05-20T03:22:37;78386.19;;;25.05;41.38
20955;BME280;10636;19.390;-99.256;2023-05-20T03:25:06;78361.41;;;24.75;41.46
20955;BME280;10636;19.390;-99.256;2023-05-20T03:27:35;78394.75;;;25.01;41.16
20955;BME280;10636;19.390;-99.256;2023-05-20T03:30:04;78395.44;;;25.02;41.28
20955;BME280;10636;19.390;-99.256;2023-05-20T03:32:33;78398.06;;;25.00;41.25
20955;BME280;10636;19.390;-99.256;2023-05-20T03:35:02;78388.00;;;25.00;41.18
20955;BME280;10636;19.390;-99.256;2023-05-20T03:37:32;78403.41;;;25.00;40.93
20955;BME280;10636;19.390;-99.256;2023-05-20T03:40:03;78403.41;;;25.00;40.96
20955;BME280;10636;19.390;-99.256;2023-05-20T03:42:32;78422.91;;;25.00;41.16
20955;BME280;10636;19.390;-99.256;2023-05-20T03:45:01;78437.00;;;25.01;41.03
20955;BME280;10636;19.390;-99.256;2023-05-20T03:47:29;78434.94;;;24.99;40.93
20955;BME280;10636;19.390;-99.256;2023-05-20T03:49:58;78427.47;;;24.98;40.74
20955;BME280;10636;19.390;-99.256;2023-05-20T03:52:26;78432.75;;;24.96;40.92
20955;BME280;10636;19.390;-99.256;2023-05-20T03:54:56;78436.81;;;24.97;40.89
20955;BME280;10636;19.390;-99.256;2023-05-20T03:57:25;78435.44;;;24.96;41.38
20955;BME280;10636;19.390;-99.256;2023-05-20T03:59:54;78436.72;;;24.95;41.19
20955;BME280;10636;19.390;-99.256;2023-05-20T04:02:23;78396.69;;;24.69;41.55
20955;BME280;10636;19.390;-99.256;2023-05-20T04:04:51;78425.91;;;24.93;41.51
20955;BME280;10636;19.390;-99.256;2023-05-20T04:07:23;78421.47;;;24.84;41.58
20955;BME280;10636;19.390;-99.256;2023-05-20T04:09:51;78429.78;;;24.90;41.88
20955;BME280;10636;19.390;-99.256;2023-05-20T04:12:21;78423.59;;;24.71;41.85
20955;BME280;10636;19.390;-99.256;2023-05-20T04:14:51;78443.78;;;24.88;42.01
20955;BME280;10636;19.390;-99.256;2023-05-20T04:17:20;78451.84;;;24.88;42.38
20955;BME280;10636;19.390;-99.256;2023-05-20T04:19:49;78442.84;;;24.82;42.19
20955;BME280;10636;19.390;-99.256;2023-05-20T04:22:17;78452.38;;;24.85;42.04
20955;BME280;10636;19.390;-99.256;2023-05-20T04:24:46;78452.38;;;24.85;42.31
20955;BME280;10636;19.390;-99.256;2023-05-20T04:27:14;78446.91;;;24.83;42.66
20955;BME280;10636;19.390;-99.256;2023-05-20T04:29:45;78442.84;;;24.82;42.28
20955;BME280;10636;19.390;-99.256;2023-05-20T04:32:16;78449.56;;;24.83;42.52
20955;BME280;10636;19.390;-99.256;2023-05-20T04:34:45;78419.75;;;24.61;42.29
20955;BME280;10636;19.390;-99.256;2023-05-20T04:37:14;78444.13;;;24.81;42.47
20955;BME280;10636;19.390;-99.256;2023-05-20T04:39:44;78442.75;;;24.80;42.83
20955;BME280;10636;19.390;-99.256;2023-05-20T04:42:13;78428.66;;;24.79;42.84
20955;BME280;10636;19.390;-99.256;2023-05-20T04:44:44;78418.50;;;24.77;43.03
20955;BME280;10636;19.390;-99.256;2023-05-20T04:47:15;78417.22;;;24.78;42.58
20955;BME280;10636;19.390;-99.256;2023-05-20T04:49:44;78423.78;;;24.75;42.61
20955;BME280;10636;19.390;-99.256;2023-05-20T04:52:13;78425.16;;;24.76;42.07
20955;BME280;10636;19.390;-99.256;2023-05-20T04:54:41;78418.41;;;24.75;42.56
20955;BME280;10636;19.390;-99.256;2023-05-20T04:57:10;78415.13;;;24.77;42.24
20955;BME280;10636;19.390;-99.256;2023-05-20T04:59:39;78402.31;;;24.75;42.55
20955;BME280;10636;19.390;-99.256;2023-05-20T05:02:09;78356.66;;;24.44;42.45
20955;BME280;10636;19.390;-99.256;2023-05-20T05:04:37;78402.31;;;24.75;42.06
20955;BME280;10636;19.390;-99.256;2023-05-20T05:07:05;78395.56;;;24.74;42.14
20955;BME280;10636;19.390;-99.256;2023-05-20T05:09:36;78397.47;;;24.72;42.17
20955;BME280;10636;19.390;-99.256;2023-05-20T05:12:05;78398.16;;;24.72;42.51
20955;BME280;10636;19.390;-99.256;2023-05-20T05:14:33;78391.41;;;24.71;42.01
20955;BME280;10636;19.390;-99.256;2023-05-20T05:17:02;78386.66;;;24.70;42.44
20955;BME280;10636;19.390;-99.256;2023-05-20T05:19:32;78385.97;;;24.69;42.15
20955;BME280;10636;19.390;-99.256;2023-05-20T05:22:00;78383.88;;;24.68;41.62
20955;BME280;10636;19.390;-99.256;2023-05-20T05:24:29;78392.63;;;24.68;42.04
20955;BME280;10636;19.390;-99.256;2023-05-20T05:26:57;78395.19;;;24.66;41.61
20955;BME280;10636;19.390;-99.256;2023-05-20T05:29:26;78375.47;;;24.60;41.82
20955;BME280;10636;19.390;-99.256;2023-05-20T05:31:54;78389.84;;;24.66;41.44
20955;BME280;10636;19.390;-99.256;2023-05-20T05:34:23;78379.72;;;24.65;41.59
20955;BME280;10636;19.390;-99.256;2023-05-20T05:36:53;78387.06;;;24.64;41.67
20955;BME280;10636;19.390;-99.256;2023-05-20T05:39:21;78377.66;;;24.63;42.11
20955;BME280;10636;19.390;-99.256;2023-05-20T05:41:50;78378.22;;;24.62;42.21
20955;BME280;10636;19.390;-99.256;2023-05-20T05:44:19;78374.97;;;24.63;41.57
20955;BME280;10636;19.390;-99.256;2023-05-20T05:46:47;78362.13;;;24.62;41.54
20955;BME280;10636;19.390;-99.256;2023-05-20T05:49:16;78356.69;;;24.60;41.70
20955;BME280;10636;19.390;-99.256;2023-05-20T05:51:44;78351.94;;;24.58;41.75
20955;BME280;10636;19.390;-99.256;2023-05-20T05:54:14;78351.94;;;24.58;41.97
20955;BME280;10636;19.390;-99.256;2023-05-20T05:56:43;78350.63;;;24.59;41.81
20955;BME280;10636;19.390;-99.256;2023-05-20T05:59:11;78355.31;;;24.59;41.41
20955;BME280;10636;19.390;-99.256;2023-05-20T06:01:42;78346.47;;;24.56;41.72
20955;BME280;10636;19.390;-99.256;2023-05-20T06:04:10;78339.81;;;24.57;41.71
20955;BME280;10636;19.390;-99.256;2023-05-20T06:06:39;78338.44;;;24.56;41.63
20955;BME280;10636;19.390;-99.256;2023-05-20T06:09:07;78343.78;;;24.56;41.50
20955;BME280;10636;19.390;-99.256;2023-05-20T06:11:37;78344.47;;;24.57;41.74
20955;BME280;10636;19.390;-99.256;2023-05-20T06:14:07;78347.78;;;24.55;41.68
20955;BME280;10636;19.390;-99.256;2023-05-20T06:16:35;78329.75;;;24.42;41.31
20955;BME280;10636;19.390;-99.256;2023-05-20T06:19:04;78341.63;;;24.52;41.68
20955;BME280;10636;19.390;-99.256;2023-05-20T06:21:34;78302.91;;;24.26;41.29
20955;BME280;10636;19.390;-99.256;2023-05-20T06:24:05;78328.91;;;24.53;41.21
20955;BME280;10636;19.390;-99.256;2023-05-20T06:26:33;78328.91;;;24.53;41.17
20955;BME280;10636;19.390;-99.256;2023-05-20T06:29:03;78333.47;;;24.50;41.26
20955;BME280;10636;19.390;-99.256;2023-05-20T06:31:32;78329.41;;;24.49;41.35
20955;BME280;10636;19.390;-99.256;2023-05-20T06:34:00;78328.81;;;24.51;41.65
20955;BME280;10636;19.390;-99.256;2023-05-20T06:36:28;78333.41;;;24.48;41.66
20955;BME280;10636;19.390;-99.256;2023-05-20T06:38:57;78339.47;;;24.49;41.29
20955;BME280;10636;19.390;-99.256;2023-05-20T06:41:29;78331.34;;;24.47;41.32
20955;BME280;10636;19.390;-99.256;2023-05-20T06:43:57;78331.34;;;24.47;41.52
20955;BME280;10636;19.390;-99.256;2023-05-20T06:46:27;78330.63;;;24.46;41.70
20955;BME280;10636;19.390;-99.256;2023-05-20T06:48:56;78281.56;;;24.14;41.90
20955;BME280;10636;19.390;-99.256;2023-05-20T06:51:24;78325.25;;;24.46;41.83
20955;BME280;10636;19.390;-99.256;2023-05-20T06:53:53;78328.53;;;24.45;41.58
20955;BME280;10636;19.390;-99.256;2023-05-20T06:56:21;78320.50;;;24.45;41.62
20955;BME280;10636;19.390;-99.256;2023-05-20T06:58:50;78300.34;;;24.44;41.64
20955;BME280;10636;19.390;-99.256;2023-05-20T07:01:18;78298.97;;;24.43;41.84
20955;BME280;10636;19.390;-99.256;2023-05-20T07:03:48;78297.06;;;24.45;41.69
20955;BME280;10636;19.390;-99.256;2023-05-20T07:06:17;78301.72;;;24.45;41.13
20955;BME280;10636;19.390;-99.256;2023-05-20T07:08:45;78298.97;;;24.43;41.85
20955;BME280;10636;19.390;-99.256;2023-05-20T07:11:13;78308.41;;;24.44;41.19
20955;BME280;10636;19.390;-99.256;2023-05-20T07:13:42;78308.41;;;24.44;41.70
20955;BME280;10636;19.390;-99.256;2023-05-20T07:16:10;78308.31;;;24.42;41.29
20955;BME280;10636;19.390;-99.256;2023-05-20T07:18:39;78311.00;;;24.42;41.82
20955;BME280;10636;19.390;-99.256;2023-05-20T07:21:09;78316.25;;;24.40;41.93
20955;BME280;10636;19.390;-99.256;2023-05-20T07:23:37;78323.69;;;24.41;41.39
20955;BME280;10636;19.390;-99.256;2023-05-20T07:26:06;78323.59;;;24.39;41.50
20955;BME280;10636;19.390;-99.256;2023-05-20T07:28:34;78325.59;;;24.39;41.10
20955;BME280;10636;19.390;-99.256;2023-05-20T07:31:03;78319.53;;;24.38;42.10
20955;BME280;10636;19.390;-99.256;2023-05-20T07:33:31;78309.59;;;24.41;41.68
20955;BME280;10636;19.390;-99.256;2023-05-20T07:35:59;78302.84;;;24.40;41.44
20955;BME280;10636;19.390;-99.256;2023-05-20T07:38:30;78305.53;;;24.40;41.61
20955;BME280;10636;19.390;-99.256;2023-05-20T07:40:58;78300.69;;;24.36;41.50
20955;BME280;10636;19.390;-99.256;2023-05-20T07:43:27;78315.47;;;24.37;41.94
20955;BME280;10636;19.390;-99.256;2023-05-20T07:45:55;78319.53;;;24.38;41.51
20955;BME280;10636;19.390;-99.256;2023-05-20T07:48:24;78309.44;;;24.37;41.67
20955;BME280;10636;19.390;-99.256;2023-05-20T07:50:52;78309.44;;;24.37;41.95
20955;BME280;10636;19.390;-99.256;2023-05-20T07:53:22;78311.28;;;24.34;42.09
20955;BME280;10636;19.390;-99.256;2023-05-20T07:55:52;78313.28;;;24.34;42.11
20955;BME280;10636;19.390;-99.256;2023-05-20T07:58:21;78306.53;;;24.33;42.22
20955;BME280;10636;19.390;-99.256;2023-05-20T08:00:50;78315.94;;;24.34;41.60
20955;BME280;10636;19.390;-99.256;2023-05-20T08:03:18;78318.63;;;24.34;41.61
20955;BME280;10636;19.390;-99.256;2023-05-20T08:05:47;78307.91;;;24.34;41.50
20955;BME280;10636;19.390;-99.256;2023-05-20T08:08:16;78307.22;;;24.33;42.02
20955;BME280;10636;19.390;-99.256;2023-05-20T08:10:44;78306.44;;;24.31;41.75
20955;BME280;10636;19.390;-99.256;2023-05-20T08:13:14;78306.53;;;24.33;41.49
20955;BME280;10636;19.390;-99.256;2023-05-20T08:15:42;78303.16;;;24.32;41.77
20955;BME280;10636;19.390;-99.256;2023-05-20T08:18:11;78301.16;;;24.33;41.96
20955;BME280;10636;19.390;-99.256;2023-05-20T08:20:39;78301.78;;;24.31;41.55
20955;BME280;10636;19.390;-99.256;2023-05-20T08:23:10;78299.78;;;24.32;42.10
20955;BME280;10636;19.390;-99.256;2023-05-20T08:25:39;78286.28;;;24.30;41.67
20955;BME280;10636;19.390;-99.256;2023-05-20T08:28:07;78294.94;;;24.28;42.04
20955;BME280;10636;19.390;-99.256;2023-05-20T08:30:37;78282.22;;;24.29;41.60
20955;BME280;10636;19.390;-99.256;2023-05-20T08:33:06;78247.50;;;24.01;41.88
20955;BME280;10636;19.390;-99.256;2023-05-20T08:35:35;78276.84;;;24.29;41.47
20955;BME280;10636;19.390;-99.256;2023-05-20T08:38:06;78276.84;;;24.29;41.96
20955;BME280;10636;19.390;-99.256;2023-05-20T08:40:34;78274.19;;;24.29;41.76
20955;BME280;10636;19.390;-99.256;2023-05-20T08:43:03;78270.72;;;24.26;41.77
20955;BME280;10636;19.390;-99.256;2023-05-20T08:45:33;78271.41;;;24.26;41.76
20955;BME280;10636;19.390;-99.256;2023-05-20T08:48:04;78278.66;;;24.24;41.66
20955;BME280;10636;19.390;-99.256;2023-05-20T08:50:32;78276.69;;;24.24;41.72
20955;BME280;10636;19.390;-99.256;2023-05-20T08:53:01;78271.31;;;24.24;41.41
20955;BME280;10636;19.390;-99.256;2023-05-20T08:55:36;78273.31;;;24.24;41.63
20955;BME280;10636;19.390;-99.256;2023-05-20T08:58:05;78267.25;;;24.23;41.95
20955;BME280;10636;19.390;-99.256;2023-05-20T09:00:33;78273.22;;;24.22;42.02
20955;BME280;10636;19.390;-99.256;2023-05-20T09:03:04;78276.59;;;24.22;41.58
20955;BME280;10636;19.390;-99.256;2023-05-20T09:05:33;78279.19;;;24.20;41.55
20955;BME280;10636;19.390;-99.256;2023-05-20T09:08:05;78256.00;;;24.11;41.79
20955;BME280;10636;19.390;-99.256;2023-05-20T09:10:34;78258.44;;;24.21;41.80
20955;BME280;10636;19.390;-99.256;2023-05-20T09:13:03;78254.97;;;24.18;42.01
20955;BME280;10636;19.390;-99.256;2023-05-20T09:15:33;78253.59;;;24.17;41.83
20955;BME280;10636;19.390;-99.256;2023-05-20T09:18:04;78254.97;;;24.18;41.88
20955;BME280;10636;19.390;-99.256;2023-05-20T09:20:33;78254.97;;;24.18;42.01
20955;BME280;10636;19.390;-99.256;2023-05-20T09:23:05;78253.59;;;24.17;42.24
20955;BME280;10636;19.390;-99.256;2023-05-20T09:25:34;78258.88;;;24.15;42.13
20955;BME280;10636;19.390;-99.256;2023-05-20T09:28:04;78260.25;;;24.16;41.94
20955;BME280;10636;19.390;-99.256;2023-05-20T09:30:33;78281.56;;;24.14;41.50
20955;BME280;10636;19.390;-99.256;2023-05-20T09:33:05;78284.59;;;24.07;41.55
20955;BME280;10636;19.390;-99.256;2023-05-20T09:35:35;78290.91;;;24.13;41.47
20955;BME280;10636;19.390;-99.256;2023-05-20T09:38:05;78286.94;;;24.14;41.74
20955;BME280;10636;19.390;-99.256;2023-05-20T09:40:33;78277.44;;;24.11;41.54
20955;BME280;10636;19.390;-99.256;2023-05-20T09:43:04;78268.09;;;24.12;41.49
20955;BME280;10636;19.390;-99.256;2023-05-20T09:45:33;78258.56;;;24.09;41.62
20955;BME280;10636;19.390;-99.256;2023-05-20T09:48:02;78257.28;;;24.10;41.96
20955;BME280;10636;19.390;-99.256;2023-05-20T09:50:33;78244.59;;;24.11;42.01
20955;BME280;10636;19.390;-99.256;2023-05-20T09:53:03;78246.56;;;24.10;42.24
20955;BME280;10636;19.390;-99.256;2023-05-20T09:55:32;78253.31;;;24.11;42.16
20955;BME280;10636;19.390;-99.256;2023-05-20T09:58:02;78249.94;;;24.11;41.84
20955;BME280;10636;19.390;-99.256;2023-05-20T10:00:30;78251.84;;;24.08;41.98
20955;BME280;10636;19.390;-99.256;2023-05-20T10:02:59;78251.84;;;24.08;41.91
20955;BME280;10636;19.390;-99.256;2023-05-20T10:05:30;78245.09;;;24.07;41.99
20955;BME280;10636;19.390;-99.256;2023-05-20T10:08:24;78250.44;;;24.07;41.62
20955;BME280;10636;19.390;-99.256;2023-05-20T10:11:04;78243.59;;;24.04;42.22
20955;BME280;10636;19.390;-99.256;2023-05-20T10:14:02;78235.56;;;24.04;42.04
20955;BME280;10636;19.390;-99.256;2023-05-20T10:16:45;78200.78;;;23.74;41.80
20955;BME280;10636;19.390;-99.256;2023-05-20T10:19:25;78243.03;;;24.06;41.83
20955;BME280;10636;19.390;-99.256;2023-05-20T10:22:00;78244.22;;;24.03;41.96
20955;BME280;10636;19.390;-99.256;2023-05-20T10:24:32;78242.16;;;24.01;42.09
20955;BME280;10636;19.390;-99.256;2023-05-20T10:27:02;78249.38;;;23.98;42.25
20955;BME280;10636;19.390;-99.256;2023-05-20T10:29:42;78260.78;;;23.99;42.39
20955;BME280;10636;19.390;-99.256;2023-05-20T10:32:11;78278.28;;;24.00;42.50
20955;BME280;10636;19.390;-99.256;2023-05-20T10:34:46;78274.19;;;23.99;42.28
20955;BME280;10636;19.390;-99.256;2023-05-20T10:37:27;78278.28;;;24.00;41.96
20955;BME280;10636;19.390;-99.256;2023-05-20T10:40:08;78268.81;;;23.99;42.29
20955;BME280;10636;19.390;-99.256;2023-05-20T10:42:38;78264.78;;;23.98;42.08
20955;BME280;10636;19.390;-99.256;2023-05-20T10:45:07;78269.44;;;23.97;42.36
20955;BME280;10636;19.390;-99.256;2023-05-20T10:47:36;78274.03;;;23.95;42.67
20955;BME280;10636;19.390;-99.256;2023-05-20T10:50:05;78271.34;;;23.95;42.46
20955;BME280;10636;19.390;-99.256;2023-05-20T10:52:35;78276.69;;;23.95;41.77
20955;BME280;10636;19.390;-99.256;2023-05-20T10:55:06;78265.28;;;23.94;42.52
20955;BME280;10636;19.390;-99.256;2023-05-20T10:57:46;78273.34;;;23.94;42.41
20955;BME280;10636;19.390;-99.256;2023-05-20T11:00:15;78272.66;;;23.94;41.76
20955;BME280;10636;19.390;-99.256;2023-05-20T11:02:44;78269.25;;;23.93;42.28
20955;BME280;10636;19.390;-99.256;2023-05-20T11:05:13;78275.31;;;23.94;42.40
20955;BME280;10636;19.390;-99.256;2023-05-20T11:07:44;78275.31;;;23.94;42.29
20955;BME280;10636;19.390;-99.256;2023-05-20T11:10:14;78269.97;;;23.94;42.63
20955;BME280;10636;19.390;-99.256;2023-05-20T11:12:42;78271.22;;;23.93;42.45
20955;BME280;10636;19.390;-99.256;2023-05-20T11:15:11;78277.88;;;23.92;41.70
20955;BME280;10636;19.390;-99.256;2023-05-20T11:17:51;78269.84;;;23.92;42.07
20955;BME280;10636;19.390;-99.256;2023-05-20T11:20:20;78271.16;;;23.91;42.01
20955;BME280;10636;19.390;-99.256;2023-05-20T11:22:50;78265.78;;;23.91;41.82
20955;BME280;10636;19.390;-99.256;2023-05-20T11:25:20;78264.41;;;23.90;41.78
20955;BME280;10636;19.390;-99.256;2023-05-20T11:27:49;78268.41;;;23.89;42.06
20955;BME280;10636;19.390;-99.256;2023-05-20T11:30:18;78285.16;;;23.89;42.05
20955;BME280;10636;19.390;-99.256;2023-05-20T11:32:56;78283.75;;;23.88;42.18
20955;BME280;10636;19.390;-99.256;2023-05-20T11:35:26;78289.81;;;23.89;42.26
20955;BME280;10636;19.390;-99.256;2023-05-20T11:37:56;78288.25;;;23.84;41.87
20955;BME280;10636;19.390;-99.256;2023-05-20T11:40:29;78282.97;;;23.86;42.40
20955;BME280;10636;19.390;-99.256;2023-05-20T11:42:59;78283.06;;;23.88;41.58
20955;BME280;10636;19.390;-99.256;2023-05-20T11:45:38;78281.69;;;23.87;42.36
20955;BME280;10636;19.390;-99.256;2023-05-20T11:48:07;78280.28;;;23.86;41.77
20955;BME280;10636;19.390;-99.256;2023-05-20T11:50:37;78278.81;;;23.83;41.94
20955;BME280;10636;19.390;-99.256;2023-05-20T11:53:07;78278.22;;;23.84;41.86
20955;BME280;10636;19.390;-99.256;2023-05-20T11:55:45;78280.09;;;23.82;42.36
20955;BME280;10636;19.390;-99.256;2023-05-20T11:58:16;78289.44;;;23.81;41.81
20955;BME280;10636;19.390;-99.256;2023-05-20T12:00:45;78282.09;;;23.81;42.30
20955;BME280;10636;19.390;-99.256;2023-05-20T12:03:14;78274.00;;;23.65;41.89
20955;BME280;10636;19.390;-99.256;2023-05-20T12:05:43;78298.06;;;23.79;41.73
20955;BME280;10636;19.390;-99.256;2023-05-20T12:08:12;78297.56;;;23.83;41.56
20955;BME280;10636;19.390;-99.256;2023-05-20T12:10:41;78297.47;;;23.81;41.70
20955;BME280;10636;19.390;-99.256;2023-05-20T12:13:11;78298.75;;;23.80;42.36
20955;BME280;10636;19.390;-99.256;2023-05-20T12:15:40;78302.06;;;23.78;42.30
20955;BME280;10636;19.390;-99.256;2023-05-20T12:18:08;78299.94;;;23.77;42.24
20955;BME280;10636;19.390;-99.256;2023-05-20T12:20:37;78302.25;;;23.68;41.93
20955;BME280;10636;19.390;-99.256;2023-05-20T12:23:06;78307.91;;;23.74;42.36
20955;BME280;10636;19.390;-99.256;2023-05-20T12:25:34;78315.94;;;23.74;42.27
20955;BME280;10636;19.390;-99.256;2023-05-20T12:28:05;78329.31;;;23.74;41.75
20955;BME280;10636;19.390;-99.256;2023-05-20T12:30:35;78320.00;;;23.76;42.27
20955;BME280;10636;19.390;-99.256;2023-05-20T12:33:03;78325.34;;;23.76;41.59
20955;BME280;10636;19.390;-99.256;2023-05-20T12:35:37;78282.53;;;23.48;42.01
20955;BME280;10636;19.390;-99.256;2023-05-20T12:38:06;78299.41;;;23.64;41.75
20955;BME280;10636;19.390;-99.256;2023-05-20T12:40:35;78309.97;;;23.76;41.75
20955;BME280;10636;19.390;-99.256;2023-05-20T12:43:03;78310.66;;;23.77;42.58
20955;BME280;10636;19.390;-99.256;2023-05-20T12:45:34;78317.41;;;23.78;41.97
20955;BME280;10636;19.390;-99.256;2023-05-20T12:48:02;78321.38;;;23.77;42.25
20955;BME280;10636;19.390;-99.256;2023-05-20T12:50:32;78325.34;;;23.76;42.16
20955;BME280;10636;19.390;-99.256;2023-05-20T12:53:00;78327.44;;;23.77;42.36
20955;BME280;10636;19.390;-99.256;2023-05-20T12:55:29;78336.06;;;23.76;42.37
20955;BME280;10636;19.390;-99.256;2023-05-20T12:57:57;78340.22;;;23.79;41.59